createdAt,value
2017-07-11T00:01:44.707Z,9.80
2017-07-11T00:04:13.587Z,9.20
2017-07-11T00:06:42.483Z,9.00
2017-07-11T00:09:11.348Z,7.83
2017-07-11T00:11:40.243Z,10.10
2017-07-11T00:14:09.125Z,8.20
2017-07-11T00:16:38.006Z,8.33
2017-07-11T00:19:06.902Z,9.83
2017-07-11T00:21:35.791Z,9.00
2017-07-11T00:24:04.695Z,8.80
2017-07-11T00:26:33.583Z,10.43
2017-07-11T00:29:02.476Z,10.17
2017-07-11T00:31:31.351Z,10.60
2017-07-11T00:34:00.241Z,9.97
2017-07-11T00:36:29.123Z,10.37
2017-07-11T00:38:58.024Z,10.10
2017-07-11T00:41:26.903Z,9.50
2017-07-11T00:43:55.793Z,9.53
2017-07-11T00:46:24.684Z,9.27
2017-07-11T00:48:53.569Z,8.97
2017-07-11T00:51:22.444Z,8.80
2017-07-11T00:53:51.520Z,8.70
2017-07-11T00:56:20.406Z,9.77
2017-07-11T00:58:49.286Z,8.20
2017-07-11T01:01:18.283Z,9.90
2017-07-11T01:03:47.163Z,8.00
2017-07-11T01:06:16.050Z,8.57
2017-07-11T01:08:44.934Z,8.63
2017-07-11T01:11:13.830Z,9.43
2017-07-11T01:13:42.721Z,9.40
2017-07-11T01:16:11.632Z,9.03
2017-07-11T01:18:40.534Z,10.00
2017-07-11T01:21:09.425Z,8.30
2017-07-11T01:23:38.349Z,8.37
2017-07-11T01:26:07.240Z,10.30
2017-07-11T01:28:36.127Z,8.90
2017-07-11T01:31:05.025Z,8.67
2017-07-11T01:33:33.904Z,8.70
2017-07-11T01:36:02.802Z,8.40
2017-07-11T01:38:31.679Z,8.50
2017-07-11T01:41:00.564Z,8.60
2017-07-11T01:43:29.474Z,10.10
2017-07-11T01:45:58.360Z,10.17
2017-07-11T01:48:27.244Z,7.50
2017-07-11T01:50:56.116Z,8.90
2017-07-11T01:53:25.007Z,7.50
2017-07-11T01:55:53.884Z,8.50
2017-07-11T01:58:22.794Z,8.20
2017-07-11T02:00:51.682Z,6.93
2017-07-11T02:03:20.573Z,7.37
2017-07-11T02:05:49.458Z,6.87
2017-07-11T02:08:18.358Z,6.73
2017-07-11T02:10:47.241Z,6.70
2017-07-11T02:13:16.134Z,7.80
2017-07-11T02:15:45.017Z,6.10
2017-07-11T02:18:13.932Z,7.37
2017-07-11T02:20:42.805Z,7.53
2017-07-11T02:23:11.702Z,7.47
2017-07-11T02:25:40.596Z,6.93
2017-07-11T02:28:09.464Z,7.67
2017-07-11T02:30:38.394Z,7.57
2017-07-11T02:33:07.267Z,6.77
2017-07-11T02:35:36.165Z,6.53
2017-07-11T02:38:06.050Z,6.60
2017-07-11T02:40:34.929Z,6.80
2017-07-11T02:43:03.815Z,6.57
2017-07-11T02:45:32.706Z,6.90
2017-07-11T02:48:01.625Z,6.27
2017-07-11T02:50:30.515Z,6.47
2017-07-11T02:52:59.409Z,6.03
2017-07-11T02:55:28.308Z,5.47
2017-07-11T02:57:57.198Z,6.10
2017-07-11T03:00:26.095Z,6.20
2017-07-11T03:02:54.971Z,5.13
2017-07-11T03:05:23.860Z,5.73
2017-07-11T03:07:52.748Z,5.73
2017-07-11T03:10:21.633Z,5.63
2017-07-11T03:12:50.502Z,6.57
2017-07-11T03:15:19.471Z,6.80
2017-07-11T03:17:48.349Z,8.13
2017-07-11T03:20:17.269Z,9.10
2017-07-11T03:22:46.169Z,7.27
2017-07-11T03:25:15.045Z,7.80
2017-07-11T03:27:43.945Z,7.40
2017-07-11T03:30:12.809Z,8.40
2017-07-11T03:32:41.688Z,7.73
2017-07-11T03:35:10.565Z,8.03
2017-07-11T03:37:39.457Z,8.30
2017-07-11T03:40:08.345Z,7.53
2017-07-11T03:42:37.247Z,7.40
2017-07-11T03:45:06.141Z,8.10
2017-07-11T03:47:35.050Z,8.00
2017-07-11T03:50:03.942Z,7.40
2017-07-11T03:52:32.847Z,8.33
2017-07-11T03:55:01.720Z,7.90
2017-07-11T03:57:30.626Z,7.83
2017-07-11T03:59:59.499Z,7.73
2017-07-11T04:02:28.389Z,8.23
2017-07-11T04:04:57.261Z,9.27
2017-07-11T04:07:26.171Z,7.30
2017-07-11T04:09:55.046Z,8.70
2017-07-11T04:12:23.928Z,9.93
2017-07-11T04:14:52.827Z,8.70
2017-07-11T04:17:21.712Z,7.67
2017-07-11T04:19:50.614Z,8.83
2017-07-11T04:22:19.488Z,35.50
2017-07-11T04:24:48.393Z,16.67
2017-07-11T04:27:17.283Z,10.13
2017-07-11T04:29:46.187Z,10.17
2017-07-11T04:32:15.066Z,11.13
2017-07-11T04:34:44.008Z,11.20
2017-07-11T04:37:12.891Z,9.23
2017-07-11T04:39:41.776Z,12.50
2017-07-11T04:42:10.673Z,10.00
2017-07-11T04:44:39.575Z,11.60
2017-07-11T04:47:08.467Z,10.57
2017-07-11T04:49:37.357Z,11.07
2017-07-11T04:52:06.283Z,10.80
2017-07-11T04:54:35.177Z,10.47
2017-07-11T04:57:04.109Z,13.20
2017-07-11T04:59:33.005Z,12.90
2017-07-11T05:02:01.906Z,12.93
2017-07-11T05:04:30.780Z,12.27
2017-07-11T05:06:59.682Z,14.10
2017-07-11T05:09:28.563Z,11.97
2017-07-11T05:11:57.466Z,10.33
2017-07-11T05:14:26.363Z,10.90
2017-07-11T05:16:55.273Z,12.30
2017-07-11T05:19:24.150Z,11.83
2017-07-11T05:21:53.052Z,11.67
2017-07-11T05:24:21.940Z,11.10
2017-07-11T05:26:50.831Z,10.43
2017-07-11T05:29:19.746Z,10.80
2017-07-11T05:31:48.651Z,10.83
2017-07-11T05:34:17.543Z,10.57
2017-07-11T05:36:46.427Z,10.90
2017-07-11T05:39:15.347Z,13.40
2017-07-11T05:41:44.222Z,11.70
2017-07-11T05:44:13.143Z,11.57
2017-07-11T05:46:42.033Z,12.70
2017-07-11T05:49:10.923Z,11.13
2017-07-11T05:51:39.818Z,11.40
2017-07-11T05:54:08.735Z,12.07
2017-07-11T05:56:37.643Z,12.37
2017-07-11T05:59:06.559Z,11.43
2017-07-11T06:01:35.431Z,12.87
2017-07-11T06:04:04.325Z,10.63
2017-07-11T06:06:33.218Z,10.17
2017-07-11T06:09:02.143Z,11.00
2017-07-11T06:11:32.029Z,10.73
2017-07-11T06:14:00.929Z,9.60
2017-07-11T06:16:29.876Z,10.47
2017-07-11T06:18:58.779Z,10.00
2017-07-11T06:21:27.688Z,8.30
2017-07-11T06:23:56.561Z,8.87
2017-07-11T06:26:25.470Z,9.83
2017-07-11T06:28:54.354Z,8.57
2017-07-11T06:31:23.253Z,8.70
2017-07-11T06:33:52.129Z,7.43
2017-07-11T06:36:21.017Z,8.23
2017-07-11T06:38:49.911Z,8.13
2017-07-11T06:41:18.814Z,8.37
2017-07-11T06:43:47.803Z,9.60
2017-07-11T06:46:16.694Z,7.73
2017-07-11T06:48:45.584Z,8.17
2017-07-11T06:51:14.474Z,7.87
2017-07-11T06:53:43.355Z,7.90
2017-07-11T06:56:12.255Z,8.10
2017-07-11T06:58:41.118Z,7.87
2017-07-11T07:01:10.017Z,8.00
2017-07-11T07:03:38.937Z,8.03
2017-07-11T07:06:07.827Z,7.60
2017-07-11T07:08:36.707Z,7.07
2017-07-11T07:11:05.593Z,6.80
2017-07-11T07:13:34.507Z,8.37
2017-07-11T07:16:03.377Z,7.73
2017-07-11T07:18:32.290Z,7.70
2017-07-11T07:21:01.156Z,6.67
2017-07-11T07:23:30.143Z,6.23
2017-07-11T07:25:59.034Z,6.70
2017-07-11T07:28:27.934Z,6.80
2017-07-11T07:30:56.825Z,6.53
2017-07-11T07:33:25.714Z,7.20
2017-07-11T07:35:54.595Z,6.13
2017-07-11T07:38:23.468Z,5.70
2017-07-11T07:40:52.367Z,6.00
2017-07-11T07:43:21.255Z,5.70
2017-07-11T07:45:50.155Z,5.80
2017-07-11T07:48:19.035Z,4.87
2017-07-11T07:50:48.052Z,4.47
2017-07-11T07:53:16.915Z,4.70
2017-07-11T07:55:45.814Z,5.10
2017-07-11T07:58:14.708Z,5.10
2017-07-11T08:00:43.612Z,4.00
2017-07-11T08:03:12.506Z,3.97
2017-07-11T08:05:41.414Z,3.53
2017-07-11T08:08:10.307Z,3.80
2017-07-11T08:10:39.197Z,4.27
2017-07-11T08:13:08.077Z,3.90
2017-07-11T08:15:36.971Z,3.87
2017-07-11T08:18:05.838Z,4.37
2017-07-11T08:20:34.858Z,3.67
2017-07-11T08:23:03.847Z,3.37
2017-07-11T08:25:32.729Z,3.67
2017-07-11T08:28:01.622Z,4.60
2017-07-11T08:30:30.513Z,4.10
2017-07-11T08:32:59.406Z,3.90
2017-07-11T08:35:28.296Z,4.57
2017-07-11T08:37:57.229Z,4.30
2017-07-11T08:40:26.127Z,3.63
2017-07-11T08:42:55.023Z,3.77
2017-07-11T08:45:23.890Z,3.93
2017-07-11T08:47:52.866Z,3.90
2017-07-11T08:50:21.756Z,3.63
2017-07-11T08:52:50.654Z,4.77
2017-07-11T08:55:19.546Z,4.03
2017-07-11T08:57:48.537Z,3.40
2017-07-11T09:00:17.417Z,3.30
2017-07-11T09:02:46.319Z,3.57
2017-07-11T09:05:15.209Z,3.53
2017-07-11T09:07:44.090Z,4.20
2017-07-11T09:10:13.001Z,4.57
2017-07-11T09:12:41.894Z,3.80
2017-07-11T09:15:10.834Z,3.50
2017-07-11T09:17:39.704Z,3.57
2017-07-11T09:20:08.600Z,3.50
2017-07-11T09:22:37.477Z,3.43
2017-07-11T09:25:06.365Z,3.40
2017-07-11T09:27:35.246Z,4.00
2017-07-11T09:30:04.144Z,3.83
2017-07-11T09:32:33.031Z,4.30
2017-07-11T09:35:01.920Z,3.73
2017-07-11T09:37:30.821Z,3.43
2017-07-11T09:39:59.711Z,3.40
2017-07-11T09:42:28.594Z,3.70
2017-07-11T09:44:57.502Z,3.53
2017-07-11T09:47:26.374Z,3.90
2017-07-11T09:49:55.258Z,3.67
2017-07-11T09:52:24.152Z,3.83
2017-07-11T09:54:53.020Z,3.20
2017-07-11T09:57:21.924Z,3.77
2017-07-11T09:59:50.789Z,3.05
2017-07-11T10:02:19.686Z,3.65
2017-07-11T10:04:48.618Z,2.95
2017-07-11T10:07:17.519Z,3.60
2017-07-11T10:09:46.497Z,3.05
2017-07-11T10:12:15.376Z,4.63
2017-07-11T10:14:44.284Z,3.10
2017-07-11T10:17:13.178Z,3.80
2017-07-11T10:19:42.048Z,3.20
2017-07-11T10:22:10.954Z,3.40
2017-07-11T10:24:39.814Z,3.20
2017-07-11T10:27:08.724Z,3.30
2017-07-11T10:29:37.655Z,3.83
2017-07-11T10:32:06.622Z,3.33
2017-07-11T10:34:35.506Z,3.33
2017-07-11T10:37:04.386Z,3.00
2017-07-11T10:39:33.282Z,3.00
2017-07-11T10:42:02.158Z,3.00
2017-07-11T10:44:31.059Z,3.00
2017-07-11T10:46:59.938Z,3.45
2017-07-11T10:49:28.826Z,3.10
2017-07-11T10:51:57.704Z,3.58
2017-07-11T10:54:26.621Z,3.10
2017-07-11T10:56:55.477Z,3.50
2017-07-11T10:59:24.361Z,3.58
2017-07-11T11:01:53.291Z,3.95
2017-07-11T11:04:22.189Z,3.67
2017-07-11T11:06:51.072Z,3.62
2017-07-11T11:09:19.962Z,3.50
2017-07-11T11:11:48.845Z,4.28
2017-07-11T11:14:17.774Z,5.60
2017-07-11T11:16:46.638Z,3.45
2017-07-11T11:19:15.536Z,4.60
2017-07-11T11:21:44.423Z,3.33
2017-07-11T11:24:13.311Z,4.57
2017-07-11T11:26:42.211Z,3.33
2017-07-11T11:29:11.108Z,3.05
2017-07-11T11:31:40.047Z,4.20
2017-07-11T11:34:09.017Z,3.65
2017-07-11T11:36:37.979Z,3.83
2017-07-11T11:39:06.854Z,4.00
2017-07-11T11:41:35.736Z,3.33
2017-07-11T11:44:04.623Z,3.92
2017-07-11T11:46:33.522Z,4.18
2017-07-11T11:49:02.414Z,3.72
2017-07-11T11:51:31.339Z,4.72
2017-07-11T11:54:00.247Z,5.45
2017-07-11T11:56:29.147Z,5.00
2017-07-11T11:58:58.039Z,4.65
2017-07-11T12:01:26.927Z,5.75
2017-07-11T12:03:56.626Z,5.95
2017-07-11T12:06:25.509Z,5.47
2017-07-11T12:08:54.405Z,5.90
2017-07-11T12:11:23.285Z,7.03
2017-07-11T12:13:52.191Z,6.80
2017-07-11T12:16:21.069Z,6.40
2017-07-11T12:18:49.945Z,7.32
2017-07-11T12:21:18.822Z,7.07
2017-07-11T12:23:47.708Z,7.32
2017-07-11T12:26:16.600Z,6.20
2017-07-11T12:28:45.517Z,6.80
2017-07-11T12:31:14.408Z,7.62
2017-07-11T12:33:43.300Z,6.50
2017-07-11T12:36:12.191Z,7.95
2017-07-11T12:38:41.094Z,7.78
2017-07-11T12:41:09.980Z,7.57
2017-07-11T12:43:38.852Z,8.10
2017-07-11T12:46:07.751Z,6.65
2017-07-11T12:48:36.692Z,6.60
2017-07-11T12:51:05.588Z,7.75
2017-07-11T12:53:34.459Z,7.70
2017-07-11T12:56:03.361Z,7.15
2017-07-11T12:58:32.238Z,7.78
2017-07-11T13:01:01.120Z,7.97
2017-07-11T13:03:30.006Z,8.38
2017-07-11T13:05:58.931Z,7.60
2017-07-11T13:08:27.810Z,8.00
2017-07-11T13:10:56.718Z,9.95
2017-07-11T13:13:25.708Z,8.40
2017-07-11T13:15:54.708Z,7.20
2017-07-11T13:18:23.584Z,7.87
2017-07-11T13:20:52.481Z,8.48
2017-07-11T13:23:21.363Z,7.85
2017-07-11T13:25:50.247Z,8.40
2017-07-11T13:28:19.147Z,6.75
2017-07-11T13:30:48.022Z,7.70
2017-07-11T13:33:16.921Z,7.72
2017-07-11T13:35:45.803Z,8.50
2017-07-11T13:38:14.701Z,8.13
2017-07-11T13:40:43.584Z,8.23
2017-07-11T13:43:12.499Z,7.70
2017-07-11T13:45:41.370Z,8.20
2017-07-11T13:48:10.266Z,8.97
2017-07-11T13:50:39.162Z,10.10
2017-07-11T13:53:08.050Z,10.00
2017-07-11T13:55:36.937Z,9.83
2017-07-11T13:58:05.839Z,9.57
2017-07-11T14:00:34.709Z,10.00
2017-07-11T14:03:03.617Z,11.57
2017-07-11T14:05:32.503Z,10.93
2017-07-11T14:08:01.416Z,10.43
2017-07-11T14:10:30.326Z,12.50
2017-07-11T14:12:59.210Z,13.97
2017-07-11T14:15:28.173Z,11.87
2017-07-11T14:17:57.042Z,11.10
2017-07-11T14:20:25.973Z,9.40
2017-07-11T14:22:54.863Z,10.13
2017-07-11T14:25:23.761Z,13.20
2017-07-11T14:27:52.647Z,11.53
2017-07-11T14:30:21.532Z,12.60
2017-07-11T14:32:50.419Z,12.00
2017-07-11T14:35:19.324Z,10.93
2017-07-11T14:37:48.228Z,11.07
2017-07-11T14:40:17.136Z,11.40
2017-07-11T14:42:46.008Z,12.07
2017-07-11T14:45:14.900Z,10.30
2017-07-11T14:47:43.838Z,10.20
2017-07-11T14:50:12.709Z,9.70
2017-07-11T14:52:41.596Z,9.63
2017-07-11T14:55:10.494Z,10.37
2017-07-11T14:57:39.408Z,9.57
2017-07-11T15:00:08.338Z,11.20
2017-07-11T15:02:37.241Z,10.87
2017-07-11T15:05:06.114Z,8.97
2017-07-11T15:07:35.048Z,10.23
2017-07-11T15:10:03.931Z,10.53
2017-07-11T15:12:32.856Z,9.20
2017-07-11T15:15:01.749Z,10.83
2017-07-11T15:17:30.677Z,11.10
2017-07-11T15:19:59.560Z,12.80
2017-07-11T15:22:28.487Z,9.43
2017-07-11T15:24:57.369Z,12.53
2017-07-11T15:27:26.267Z,10.20
2017-07-11T15:29:55.184Z,9.10
2017-07-11T15:32:24.082Z,11.00
2017-07-11T15:34:52.984Z,9.53
2017-07-11T15:37:21.872Z,9.30
2017-07-11T15:39:50.773Z,9.60
2017-07-11T15:42:19.648Z,8.20
2017-07-11T15:44:48.535Z,8.40
2017-07-11T15:47:17.405Z,9.17
2017-07-11T15:49:46.311Z,10.63
2017-07-11T15:52:15.287Z,7.27
2017-07-11T15:54:44.185Z,10.00
2017-07-11T15:57:13.076Z,8.63
2017-07-11T15:59:41.970Z,8.57
2017-07-11T16:02:10.859Z,8.30
2017-07-11T16:04:39.748Z,8.00
2017-07-11T16:07:08.639Z,8.27
2017-07-11T16:09:37.633Z,7.87
2017-07-11T16:12:06.530Z,7.90
2017-07-11T16:14:35.414Z,9.07
2017-07-11T16:17:04.305Z,7.63
2017-07-11T16:19:33.220Z,7.30
2017-07-11T16:22:02.135Z,8.07
2017-07-11T16:24:31.009Z,8.40
2017-07-11T16:26:59.915Z,7.10
2017-07-11T16:29:29.827Z,9.30
2017-07-11T16:32:00.024Z,8.53
2017-07-11T16:34:28.994Z,8.63
2017-07-11T16:36:58.097Z,7.37
2017-07-11T16:39:26.996Z,8.07
2017-07-11T16:41:55.895Z,9.73
2017-07-11T16:44:24.872Z,9.63
2017-07-11T16:46:53.802Z,9.33
2017-07-11T16:49:22.700Z,8.63
2017-07-11T16:51:51.614Z,10.17
2017-07-11T16:54:20.546Z,9.47
2017-07-11T16:56:49.426Z,9.70
2017-07-11T16:59:18.333Z,9.53
2017-07-11T17:01:47.219Z,9.47
2017-07-11T17:04:16.129Z,9.70
2017-07-11T17:06:45.005Z,9.27
2017-07-11T17:09:14.000Z,7.93
2017-07-11T17:11:42.874Z,7.93
2017-07-11T17:14:11.781Z,8.50
2017-07-11T17:16:40.645Z,7.40
2017-07-11T17:19:09.534Z,8.40
2017-07-11T17:21:38.403Z,7.50
2017-07-11T17:24:07.305Z,7.87
2017-07-11T17:26:36.187Z,7.47
2017-07-11T17:29:05.074Z,8.60
2017-07-11T17:31:33.952Z,8.90
2017-07-11T17:34:02.846Z,9.10
2017-07-11T17:36:31.719Z,10.67
2017-07-11T17:39:00.616Z,8.50
2017-07-11T17:41:29.489Z,7.97
2017-07-11T17:43:58.382Z,9.23
2017-07-11T17:46:27.265Z,9.00
2017-07-11T17:48:56.145Z,9.00
2017-07-11T17:51:25.054Z,9.77
2017-07-11T17:53:53.951Z,10.47
2017-07-11T17:56:22.945Z,12.57
2017-07-11T17:58:51.829Z,9.67
2017-07-11T18:01:20.730Z,9.47
2017-07-11T18:03:49.612Z,10.27
2017-07-11T18:06:18.611Z,9.40
2017-07-11T18:08:47.490Z,8.87
2017-07-11T18:11:16.399Z,10.07
2017-07-11T18:13:45.291Z,9.60
2017-07-11T18:16:14.201Z,9.63
2017-07-11T18:18:43.191Z,10.37
2017-07-11T18:21:12.080Z,9.17
2017-07-11T18:23:40.972Z,10.00
2017-07-11T18:26:09.851Z,10.50
2017-07-11T18:28:38.741Z,9.77
2017-07-11T18:31:07.619Z,10.50
2017-07-11T18:33:36.547Z,10.67
2017-07-11T18:36:05.429Z,10.40
2017-07-11T18:38:34.337Z,10.70
2017-07-11T18:41:03.227Z,11.40
2017-07-11T18:43:32.197Z,11.90
2017-07-11T18:46:01.097Z,11.50
2017-07-11T18:48:30.049Z,11.10
2017-07-11T18:50:58.941Z,10.73
2017-07-11T18:53:27.866Z,11.37
2017-07-11T18:55:56.753Z,11.07
2017-07-11T18:58:25.655Z,11.70
2017-07-11T19:00:54.851Z,10.63
2017-07-11T19:03:23.843Z,11.90
2017-07-11T19:05:52.746Z,10.40
2017-07-11T19:08:21.627Z,11.20
2017-07-11T19:10:50.563Z,10.93
2017-07-11T19:13:19.455Z,12.10
2017-07-11T19:15:48.370Z,11.80
2017-07-11T19:18:17.253Z,13.30
2017-07-11T19:20:46.162Z,15.43
2017-07-11T19:23:15.037Z,14.23
2017-07-11T19:25:43.931Z,12.90
2017-07-11T19:28:12.807Z,11.87
2017-07-11T19:30:41.714Z,10.80
2017-07-11T19:33:10.588Z,11.70
2017-07-11T19:35:39.473Z,13.47
2017-07-11T19:38:08.371Z,12.17
2017-07-11T19:40:37.261Z,13.37
2017-07-11T19:43:06.154Z,12.43
2017-07-11T19:45:35.033Z,13.00
2017-07-11T19:48:03.942Z,13.00
2017-07-11T19:50:32.843Z,16.33
2017-07-11T19:53:01.742Z,14.53
2017-07-11T19:55:30.640Z,15.33
2017-07-11T19:57:59.547Z,14.10
2017-07-11T20:00:28.428Z,15.33
2017-07-11T20:02:57.342Z,14.60
2017-07-11T20:05:26.236Z,15.10
2017-07-11T20:07:55.144Z,14.20
2017-07-11T20:10:26.068Z,15.27
2017-07-11T20:12:54.983Z,17.40
2017-07-11T20:15:23.864Z,16.07
2017-07-11T20:17:52.753Z,16.43
2017-07-11T20:20:21.630Z,15.50
2017-07-11T20:22:50.501Z,15.73
2017-07-11T20:25:19.405Z,15.93
2017-07-11T20:27:48.275Z,16.60
2017-07-11T20:30:17.176Z,15.73
2017-07-11T20:32:46.068Z,15.97
2017-07-11T20:35:14.984Z,16.40
2017-07-11T20:37:43.866Z,15.43
2017-07-11T20:40:12.765Z,17.30
2017-07-11T20:42:41.681Z,16.47
2017-07-11T20:45:10.583Z,15.80
2017-07-11T20:47:39.461Z,17.10
2017-07-11T20:50:08.367Z,16.00
2017-07-11T20:52:37.247Z,16.00
2017-07-11T20:55:06.145Z,16.70
2017-07-11T20:57:35.027Z,16.63
2017-07-11T21:00:03.955Z,17.57
2017-07-11T21:02:32.873Z,16.70
2017-07-11T21:05:01.767Z,17.97
2017-07-11T21:07:30.663Z,19.80
2017-07-11T21:09:59.573Z,23.90
2017-07-11T21:12:28.480Z,17.47
2017-07-11T21:14:57.363Z,19.50
2017-07-11T21:17:26.314Z,19.23
2017-07-11T21:19:55.213Z,20.10
2017-07-11T21:22:24.106Z,19.40
2017-07-11T21:24:52.984Z,17.90
2017-07-11T21:27:21.900Z,18.70
2017-07-11T21:29:50.791Z,20.17
2017-07-11T21:32:19.691Z,18.17
2017-07-11T21:34:48.574Z,17.10
2017-07-11T21:37:17.492Z,18.33
2017-07-11T21:39:46.369Z,18.70
2017-07-11T21:42:15.353Z,18.00
2017-07-11T21:44:44.227Z,15.70
2017-07-11T21:47:13.126Z,18.90
2017-07-11T21:49:42.101Z,16.20
2017-07-11T21:52:10.989Z,17.50
2017-07-11T21:54:39.890Z,16.70
2017-07-11T21:57:08.789Z,21.07
2017-07-11T21:59:37.684Z,17.37
2017-07-11T22:02:06.586Z,15.20
2017-07-11T22:04:35.480Z,12.90
2017-07-11T22:07:04.372Z,13.47
2017-07-11T22:09:33.264Z,12.47
2017-07-11T22:12:02.148Z,12.57
2017-07-11T22:14:31.050Z,12.47
2017-07-11T22:16:59.955Z,12.47
2017-07-11T22:19:28.874Z,14.37
2017-07-11T22:21:57.830Z,14.40
2017-07-11T22:24:26.718Z,12.43
2017-07-11T22:26:55.607Z,14.50
2017-07-11T22:29:24.502Z,12.83
2017-07-11T22:31:53.397Z,12.60
2017-07-11T22:34:22.280Z,11.07
2017-07-11T22:36:51.205Z,12.97
2017-07-11T22:39:20.085Z,12.20
2017-07-11T22:41:49.015Z,13.00
2017-07-11T22:44:17.908Z,13.20
2017-07-11T22:46:46.804Z,12.53
2017-07-11T22:49:15.679Z,15.90
2017-07-11T22:51:44.584Z,12.00
2017-07-11T22:54:13.480Z,12.37
2017-07-11T22:56:42.392Z,13.60
2017-07-11T22:59:11.293Z,12.07
2017-07-11T23:01:40.206Z,13.30
2017-07-11T23:04:09.099Z,14.60
2017-07-11T23:06:38.019Z,15.23
2017-07-11T23:09:06.911Z,18.40
2017-07-11T23:11:35.808Z,17.03
2017-07-11T23:14:04.702Z,17.23
2017-07-11T23:16:33.579Z,17.80
2017-07-11T23:19:02.480Z,19.30
2017-07-11T23:21:31.370Z,19.07
2017-07-11T23:24:00.270Z,19.77
2017-07-11T23:26:29.157Z,19.67
2017-07-11T23:28:58.130Z,17.50
2017-07-11T23:31:27.007Z,20.30
2017-07-11T23:33:55.924Z,18.80
2017-07-11T23:36:24.831Z,19.93
2017-07-11T23:38:53.745Z,19.43
2017-07-11T23:41:22.620Z,19.03
2017-07-11T23:43:51.634Z,17.83
2017-07-11T23:46:20.520Z,19.63
2017-07-11T23:48:49.430Z,19.57
2017-07-11T23:51:18.302Z,17.67
2017-07-11T23:53:47.223Z,17.60
2017-07-11T23:56:16.106Z,17.83
2017-07-11T23:58:44.995Z,18.80
